Time;durP1;ratioP1;P1;durP2;ratioP2;P2;SDS_P1;SDS_P2;PMS_P1;PMS_P2;Temp;Humidity;BMP_temperature;BMP_pressure;BME280_temperature;BME280_humidity;BME280_pressure;Samples;Min_cycle;Max_cycle;Signal;HPM_P1;HPM_P2
2022/03/16 00:02:22;;;;;;;52.38;18.83;;;7.80;99.90;;;;;;5028242;28;20036;-73
2022/03/16 00:04:49;;;;;;;49.35;19.85;;;7.80;99.90;;;;;;5016487;28;20045;-73
2022/03/16 00:07:16;;;;;;;49.63;19.65;;;7.80;99.90;;;;;;5016805;28;20017;-73
2022/03/16 00:09:42;;;;;;;48.03;19.23;;;7.80;99.90;;;;;;5017653;28;20057;-72
2022/03/16 00:12:09;;;;;;;45.92;19.10;;;7.80;99.90;;;;;;5009269;28;20034;-73
2022/03/16 00:14:35;;;;;;;50.60;19.95;;;7.80;99.90;;;;;;5011125;28;20057;-73
2022/03/16 00:17:01;;;;;;;56.67;22.08;;;7.80;99.90;;;;;;5031086;28;20091;-73
2022/03/16 00:19:27;;;;;;;50.33;20.20;;;7.70;99.90;;;;;;5021539;28;20037;-73
2022/03/16 00:21:52;;;;;;;52.50;20.40;;;7.70;99.90;;;;;;5029413;28;20605;-73
2022/03/16 00:24:18;;;;;;;53.50;20.63;;;7.60;99.90;;;;;;5019791;28;20464;-73
2022/03/16 00:26:44;;;;;;;49.10;20.08;;;7.50;99.90;;;;;;5011178;28;20026;-73
2022/03/16 00:29:09;;;;;;;53.28;21.20;;;7.50;99.90;;;;;;5011004;28;20034;-73
2022/03/16 00:31:35;;;;;;;52.55;21.15;;;7.50;99.90;;;;;;5009723;28;20149;-72
2022/03/16 00:34:01;;;;;;;59.92;22.33;;;7.50;99.90;;;;;;5010724;28;20045;-74
2022/03/16 00:36:27;;;;;;;57.47;21.10;;;7.50;99.90;;;;;;5020082;28;20044;-73
2022/03/16 00:38:53;;;;;;;52.75;20.17;;;7.60;99.90;;;;;;5025554;28;20038;-73
2022/03/16 00:41:20;;;;;;;58.90;21.65;;;7.60;99.90;;;;;;5012911;28;20026;-73
2022/03/16 00:43:46;;;;;;;57.92;21.35;;;7.70;99.90;;;;;;5009973;28;20029;-74
2022/03/16 00:46:11;;;;;;;66.10;21.92;;;7.70;99.90;;;;;;5014602;28;20037;-74
2022/03/16 00:48:37;;;;;;;62.83;23.88;;;7.60;99.90;;;;;;5022567;28;20026;-73
2022/03/16 00:51:03;;;;;;;64.65;22.88;;;7.60;99.90;;;;;;5008624;28;20030;-73
2022/03/16 00:53:30;;;;;;;57.95;23.13;;;7.60;99.90;;;;;;5008423;28;20034;-74
2022/03/16 00:55:56;;;;;;;58.60;22.23;;;7.60;99.90;;;;;;5019669;28;20033;-74
2022/03/16 00:58:24;;;;;;;61.47;23.73;;;7.60;99.90;;;;;;5026557;28;20047;-73
2022/03/16 01:00:50;;;;;;;64.03;24.17;;;7.60;99.90;;;;;;5022112;28;20058;-74
2022/03/16 01:03:16;;;;;;;60.42;23.27;;;7.50;99.90;;;;;;5009059;28;20049;-72
2022/03/16 01:05:42;;;;;;;58.95;22.85;;;7.50;99.90;;;;;;5012106;28;20399;-73
2022/03/16 01:08:08;;;;;;;61.75;23.50;;;7.50;99.90;;;;;;5028144;28;20029;-73
2022/03/16 01:10:34;;;;;;;64.80;24.35;;;7.50;99.90;;;;;;5009021;28;20507;-73
2022/03/16 01:13:00;;;;;;;61.78;23.23;;;7.50;99.90;;;;;;5009459;28;20101;-73
2022/03/16 01:15:26;;;;;;;63.92;23.38;;;7.40;99.90;;;;;;5008809;28;20133;-73
2022/03/16 01:17:51;;;;;;;65.38;24.23;;;7.40;99.90;;;;;;5010193;28;20037;-73
2022/03/16 01:20:20;;;;;;;66.90;23.10;;;7.40;99.90;;;;;;5008981;28;20099;-72
2022/03/16 01:22:46;;;;;;;65.95;23.52;;;7.40;99.90;;;;;;5027406;28;20464;-73
2022/03/16 01:25:11;;;;;;;66.60;25.60;;;7.40;99.90;;;;;;5009132;28;20052;-73
2022/03/16 01:27:37;;;;;;;67.13;24.73;;;7.40;99.90;;;;;;5020873;28;20025;-73
2022/03/16 01:30:04;;;;;;;65.97;24.83;;;7.30;99.90;;;;;;5024143;28;20037;-73
2022/03/16 01:32:30;;;;;;;66.20;24.55;;;7.30;99.90;;;;;;5009689;28;20042;-73
2022/03/16 01:34:56;;;;;;;65.95;24.08;;;7.30;99.90;;;;;;5010516;28;20045;-73
2022/03/16 01:37:21;;;;;;;71.80;25.85;;;7.30;99.90;;;;;;5008897;28;20397;-73
2022/03/16 01:39:48;;;;;;;69.13;25.67;;;7.30;99.90;;;;;;5013247;28;20103;-73
2022/03/16 01:42:14;;;;;;;75.13;25.85;;;7.30;99.90;;;;;;5008335;28;20080;-73
2022/03/16 01:44:46;;;;;;;67.65;25.63;;;7.30;99.90;;;;;;5009124;28;20029;-73
2022/03/16 01:47:13;;;;;;;68.90;25.45;;;7.30;99.90;;;;;;5008414;28;20025;-73
2022/03/16 01:49:39;;;;;;;69.00;25.42;;;7.30;99.90;;;;;;5008518;28;20053;-73
2022/03/16 01:52:06;;;;;;;66.40;25.52;;;7.20;99.90;;;;;;5016799;28;20488;-73
2022/03/16 01:54:32;;;;;;;71.40;26.23;;;7.20;99.90;;;;;;5007737;28;20053;-73
2022/03/16 01:56:58;;;;;;;74.38;26.00;;;7.20;99.90;;;;;;4999574;28;20797;-73
2022/03/16 01:59:24;;;;;;;72.88;26.63;;;7.30;99.90;;;;;;5008691;28;20469;-73
2022/03/16 02:01:49;;;;;;;80.95;28.27;;;7.30;99.90;;;;;;5009013;28;20026;-73
2022/03/16 02:04:15;;;;;;;69.82;26.45;;;7.30;99.90;;;;;;5007315;28;20049;-73
2022/03/16 02:06:41;;;;;;;86.45;26.77;;;7.30;99.90;;;;;;5007768;28;20033;-73
2022/03/16 02:09:07;;;;;;;68.72;24.02;;;7.30;99.90;;;;;;5008940;28;20061;-74
2022/03/16 02:11:32;;;;;;;72.25;26.00;;;7.30;99.90;;;;;;5008495;28;20507;-73
2022/03/16 02:13:58;;;;;;;71.32;25.35;;;7.30;99.90;;;;;;5009576;28;20081;-73
2022/03/16 02:16:24;;;;;;;71.10;25.65;;;7.30;99.90;;;;;;5005228;28;20081;-74
2022/03/16 02:18:49;;;;;;;68.18;26.00;;;7.30;99.90;;;;;;4990129;28;20042;-74
2022/03/16 02:21:16;;;;;;;71.38;25.95;;;7.30;99.90;;;;;;4998997;28;20026;-73
2022/03/16 02:23:42;;;;;;;68.05;25.38;;;7.30;99.90;;;;;;5008857;28;20037;-73
2022/03/16 02:26:14;;;;;;;69.25;26.20;;;7.30;99.90;;;;;;5013642;28;20033;-72
2022/03/16 02:28:40;;;;;;;74.45;27.00;;;7.30;99.90;;;;;;5010991;28;20030;-73
2022/03/16 02:31:05;;;;;;;70.18;25.60;;;7.40;99.90;;;;;;5017022;28;20048;-73
2022/03/16 02:33:31;;;;;;;62.90;23.70;;;7.40;99.90;;;;;;5007233;28;20132;-74
2022/03/16 02:35:57;;;;;;;68.93;25.30;;;7.40;99.90;;;;;;5008986;28;20042;-73
2022/03/16 02:38:23;;;;;;;72.32;25.08;;;7.40;99.90;;;;;;5018095;28;20630;-73
2022/03/16 02:40:48;;;;;;;65.60;23.92;;;7.40;99.90;;;;;;5021124;28;20087;-73
2022/03/16 02:43:14;;;;;;;69.07;24.52;;;7.40;99.90;;;;;;5029066;28;20025;-73
2022/03/16 02:45:40;;;;;;;72.70;26.75;;;7.40;99.90;;;;;;5024055;28;20609;-74
2022/03/16 02:48:06;;;;;;;67.38;24.75;;;7.30;99.90;;;;;;5021574;28;20026;-73
2022/03/16 02:50:32;;;;;;;66.28;24.63;;;7.30;99.90;;;;;;5011823;28;20029;-73
2022/03/16 02:52:57;;;;;;;61.33;24.17;;;7.30;99.90;;;;;;5009674;28;20038;-73
2022/03/16 02:55:23;;;;;;;65.47;24.77;;;7.30;99.90;;;;;;5039287;28;20038;-73
2022/03/16 02:57:49;;;;;;;67.90;24.73;;;7.20;99.90;;;;;;5006958;28;20041;-73
2022/03/16 03:00:15;;;;;;;68.88;25.58;;;7.20;99.90;;;;;;5008168;28;20483;-74
2022/03/16 03:02:41;;;;;;;66.30;24.00;;;7.20;99.90;;;;;;5006639;28;20277;-74
2022/03/16 03:05:07;;;;;;;67.90;24.83;;;7.20;99.90;;;;;;5010069;28;20468;-73
2022/03/16 03:07:33;;;;;;;68.30;25.33;;;7.20;99.90;;;;;;5015651;28;20535;-73
2022/03/16 03:09:59;;;;;;;72.53;26.17;;;7.20;99.90;;;;;;5016286;28;20029;-74
2022/03/16 03:12:25;;;;;;;75.85;27.02;;;7.10;99.90;;;;;;5011578;28;20113;-73
2022/03/16 03:14:50;;;;;;;68.50;25.45;;;7.10;99.90;;;;;;5010215;28;20104;-73
2022/03/16 03:17:16;;;;;;;67.15;24.77;;;7.10;99.90;;;;;;5011031;28;20096;-73
2022/03/16 03:19:43;;;;;;;63.15;24.17;;;7.10;99.90;;;;;;5010357;28;20632;-73
2022/03/16 03:22:09;;;;;;;66.22;24.80;;;6.90;99.90;;;;;;5012072;28;20113;-72
2022/03/16 03:24:35;;;;;;;69.38;24.70;;;6.90;99.90;;;;;;5010189;28;20439;-73
2022/03/16 03:27:00;;;;;;;64.47;23.30;;;6.80;99.90;;;;;;5012289;28;20025;-73
2022/03/16 03:29:26;;;;;;;62.08;23.25;;;6.80;99.90;;;;;;5010816;28;20050;-73
2022/03/16 03:31:52;;;;;;;57.80;22.73;;;6.80;99.90;;;;;;5011700;28;20097;-73
2022/03/16 03:34:18;;;;;;;64.45;22.95;;;6.80;99.90;;;;;;5011647;28;20033;-72
2022/03/16 03:36:44;;;;;;;56.40;21.90;;;6.70;99.90;;;;;;5011109;28;20030;-73
2022/03/16 03:39:10;;;;;;;60.15;22.38;;;6.70;99.90;;;;;;5010239;28;20480;-73
2022/03/16 03:41:36;;;;;;;54.80;21.70;;;6.60;99.90;;;;;;5016578;28;20109;-73
2022/03/16 03:44:02;;;;;;;59.15;21.23;;;6.50;99.90;;;;;;5011776;28;20145;-73
2022/03/16 03:46:27;;;;;;;58.70;22.60;;;6.40;99.90;;;;;;5011376;28;20073;-73
2022/03/16 03:48:53;;;;;;;59.08;22.42;;;6.30;99.90;;;;;;5015210;28;20038;-73
2022/03/16 03:51:19;;;;;;;58.60;21.95;;;6.30;99.90;;;;;;5011505;28;20110;-73
2022/03/16 03:53:45;;;;;;;57.58;22.65;;;6.20;99.90;;;;;;5014649;28;20025;-74
2022/03/16 03:56:10;;;;;;;58.17;22.30;;;6.20;99.90;;;;;;5020416;28;20503;-72
2022/03/16 03:58:38;;;;;;;59.47;22.10;;;6.20;99.90;;;;;;5009249;28;20057;-73
2022/03/16 04:01:05;;;;;;;61.28;23.15;;;6.20;99.90;;;;;;5010344;28;20063;-73
2022/03/16 04:03:31;;;;;;;57.70;22.05;;;6.20;99.90;;;;;;5009116;28;20400;-72
2022/03/16 04:05:57;;;;;;;54.75;21.70;;;6.20;99.90;;;;;;5009053;28;20037;-73
2022/03/16 04:08:22;;;;;;;56.25;22.25;;;6.20;99.90;;;;;;5010354;28;20355;-72
2022/03/16 04:10:48;;;;;;;58.72;21.55;;;6.10;99.90;;;;;;5010982;28;20034;-73
2022/03/16 04:13:14;;;;;;;57.97;21.85;;;6.00;99.90;;;;;;5011322;28;20053;-73
2022/03/16 04:15:39;;;;;;;62.50;23.75;;;6.00;99.90;;;;;;5010144;28;20077;-73
2022/03/16 04:18:05;;;;;;;60.55;22.70;;;5.90;99.90;;;;;;5026273;28;20488;-73
2022/03/16 04:20:31;;;;;;;66.05;24.17;;;5.90;99.90;;;;;;5028617;28;20037;-73
2022/03/16 04:22:56;;;;;;;61.83;22.55;;;5.90;99.90;;;;;;5012980;28;20113;-73
2022/03/16 04:25:22;;;;;;;66.82;24.75;;;5.80;99.90;;;;;;5010496;28;20507;-73
2022/03/16 04:27:48;;;;;;;71.60;25.00;;;5.70;99.90;;;;;;5013505;28;20570;-73
2022/03/16 04:30:13;;;;;;;67.78;25.27;;;5.70;99.90;;;;;;5041932;28;20500;-71
2022/03/16 04:32:39;;;;;;;68.05;24.48;;;5.60;99.90;;;;;;5011258;28;20038;-73
2022/03/16 04:35:05;;;;;;;64.90;24.83;;;5.60;99.90;;;;;;5010420;28;20072;-72
2022/03/16 04:37:32;;;;;;;72.28;24.98;;;5.60;99.90;;;;;;5013475;28;20030;-73
2022/03/16 04:39:58;;;;;;;68.75;24.48;;;5.50;99.90;;;;;;5020929;28;20062;-72
2022/03/16 04:42:24;;;;;;;63.45;24.23;;;5.60;99.90;;;;;;5007252;28;20040;-72
2022/03/16 04:44:50;;;;;;;67.60;24.15;;;5.50;99.90;;;;;;5009732;28;20030;-73
2022/03/16 04:47:15;;;;;;;62.25;23.25;;;5.60;99.90;;;;;;5012560;28;20549;-73
2022/03/16 04:49:41;;;;;;;64.93;23.90;;;5.50;99.90;;;;;;5009774;28;20026;-72
2022/03/16 04:52:07;;;;;;;65.07;23.35;;;5.40;99.90;;;;;;5018238;28;20033;-73
2022/03/16 04:54:32;;;;;;;64.78;23.55;;;5.40;99.90;;;;;;5009289;28;20104;-73
2022/03/16 04:56:58;;;;;;;63.72;24.35;;;5.40;99.90;;;;;;5009097;28;20044;-72
2022/03/16 04:59:24;;;;;;;71.65;24.90;;;5.40;99.90;;;;;;5003622;28;20474;-73
2022/03/16 05:01:49;;;;;;;61.70;22.50;;;5.40;99.90;;;;;;5019931;28;20030;-74
2022/03/16 05:04:15;;;;;;;60.25;22.42;;;5.40;99.90;;;;;;5008740;28;20124;-73
2022/03/16 05:06:41;;;;;;;60.05;22.77;;;5.40;99.90;;;;;;5008989;28;20104;-73
2022/03/16 05:09:06;;;;;;;59.25;22.88;;;5.40;99.90;;;;;;5015137;28;20482;-72
2022/03/16 05:11:34;;;;;;;59.55;22.98;;;5.40;99.90;;;;;;5012485;28;20088;-73
2022/03/16 05:13:59;;;;;;;62.05;23.33;;;5.30;99.90;;;;;;5009665;28;20376;-73
2022/03/16 05:16:25;;;;;;;56.47;21.58;;;5.40;99.90;;;;;;5010109;28;20044;-73
2022/03/16 05:18:51;;;;;;;63.58;23.30;;;5.30;99.90;;;;;;5008697;28;20030;-72
2022/03/16 05:21:16;;;;;;;54.55;20.98;;;5.30;99.90;;;;;;5009500;28;20116;-74
2022/03/16 05:23:42;;;;;;;60.70;21.92;;;5.30;99.90;;;;;;5007455;28;20029;-73
2022/03/16 05:26:08;;;;;;;63.53;22.73;;;5.30;99.90;;;;;;5009439;28;20033;-73
2022/03/16 05:28:35;;;;;;;58.25;22.08;;;5.30;99.90;;;;;;5006524;28;20034;-73
2022/03/16 05:31:00;;;;;;;59.70;22.60;;;5.30;99.90;;;;;;5008869;28;20464;-73
2022/03/16 05:33:26;;;;;;;58.33;22.13;;;5.30;99.90;;;;;;5009843;28;20037;-72
2022/03/16 05:35:52;;;;;;;61.60;22.85;;;5.30;99.90;;;;;;5022536;28;20025;-72
2022/03/16 05:38:17;;;;;;;62.72;23.33;;;5.30;99.90;;;;;;5009048;28;20773;-73
2022/03/16 05:40:44;;;;;;;60.60;23.55;;;5.30;99.90;;;;;;5007820;28;20365;-73
2022/03/16 05:43:10;;;;;;;62.55;24.27;;;5.30;99.90;;;;;;5009237;28;20030;-71
2022/03/16 05:45:37;;;;;;;59.42;21.50;;;5.30;99.90;;;;;;5008177;28;20026;-71
2022/03/16 05:48:04;;;;;;;60.70;22.45;;;5.30;99.90;;;;;;5009200;28;20065;-72
2022/03/16 05:50:30;;;;;;;58.67;22.10;;;5.30;99.90;;;;;;5008047;28;20465;-72
2022/03/16 05:52:57;;;;;;;59.35;23.23;;;5.30;99.90;;;;;;5009292;28;20037;-73
2022/03/16 05:55:23;;;;;;;58.42;21.85;;;5.30;99.90;;;;;;5007759;28;20026;-73
2022/03/16 05:57:50;;;;;;;62.90;23.00;;;5.30;99.90;;;;;;5009523;28;20111;-73
2022/03/16 06:00:19;;;;;;;61.63;22.25;;;5.30;99.90;;;;;;5016589;28;20022;-71
2022/03/16 06:02:46;;;;;;;60.22;23.15;;;5.30;99.90;;;;;;5008298;28;20140;-72
2022/03/16 06:05:12;;;;;;;60.10;22.15;;;5.30;99.90;;;;;;5008634;28;20069;-72
2022/03/16 06:07:38;;;;;;;63.60;23.55;;;5.30;99.90;;;;;;5007995;28;20048;-73
2022/03/16 06:10:06;;;;;;;58.55;21.55;;;5.30;99.90;;;;;;5009484;28;20056;-73
2022/03/16 06:12:32;;;;;;;58.28;21.27;;;5.30;99.90;;;;;;5007630;28;20061;-73
2022/03/16 06:14:58;;;;;;;64.50;22.75;;;5.30;99.90;;;;;;5008780;28;20476;-73
2022/03/16 06:17:23;;;;;;;58.08;22.80;;;5.40;99.90;;;;;;5009359;28;20073;-72
2022/03/16 06:19:49;;;;;;;56.80;20.25;;;5.30;99.90;;;;;;5008123;28;20614;-72
2022/03/16 06:22:15;;;;;;;54.50;21.00;;;5.40;99.90;;;;;;5008826;28;20034;-72
2022/03/16 06:24:41;;;;;;;57.97;20.92;;;5.40;99.90;;;;;;5007710;28;20049;-71
2022/03/16 06:27:06;;;;;;;58.72;21.35;;;5.40;99.90;;;;;;5009192;28;20112;-71
2022/03/16 06:29:32;;;;;;;54.90;20.40;;;5.40;99.90;;;;;;5023125;28;20124;-72
2022/03/16 06:31:58;;;;;;;51.83;19.90;;;5.40;99.90;;;;;;5012896;28;20173;-71
2022/03/16 06:34:23;;;;;;;51.05;19.77;;;5.40;99.90;;;;;;5008362;28;20456;-73
2022/03/16 06:36:49;;;;;;;54.03;20.38;;;5.40;99.90;;;;;;5008014;28;20109;-73
2022/03/16 06:39:15;;;;;;;50.03;19.88;;;5.40;99.90;;;;;;5009214;28;20033;-73
2022/03/16 06:41:42;;;;;;;56.00;21.35;;;5.50;99.90;;;;;;5011536;28;20077;-72
2022/03/16 06:44:08;;;;;;;52.60;20.88;;;5.40;99.90;;;;;;5012987;28;20037;-72
2022/03/16 06:46:33;;;;;;;46.95;18.48;;;5.50;99.90;;;;;;5012105;28;20038;-72
2022/03/16 06:48:59;;;;;;;52.22;19.38;;;5.50;99.90;;;;;;5010759;28;20437;-73
2022/03/16 06:51:25;;;;;;;50.90;19.58;;;5.40;99.90;;;;;;5010761;28;20116;-73
2022/03/16 06:53:50;;;;;;;50.50;19.08;;;5.50;99.90;;;;;;5011360;28;20065;-73
2022/03/16 06:56:16;;;;;;;54.78;20.60;;;5.50;99.90;;;;;;5012805;28;20042;-72
2022/03/16 06:58:42;;;;;;;53.50;20.13;;;5.50;99.90;;;;;;5014809;28;20062;-73
2022/03/16 07:01:08;;;;;;;50.83;19.27;;;5.40;99.90;;;;;;5011684;28;20033;-74
2022/03/16 07:03:34;;;;;;;54.60;19.83;;;5.50;99.90;;;;;;5011879;28;20054;-71
2022/03/16 07:06:00;;;;;;;51.47;19.33;;;5.50;99.90;;;;;;5012212;28;20384;-74
2022/03/16 07:08:26;;;;;;;54.22;20.60;;;5.50;99.90;;;;;;5012357;28;20417;-73
2022/03/16 07:10:51;;;;;;;51.10;19.23;;;5.50;99.90;;;;;;5010966;28;20164;-73
2022/03/16 07:13:17;;;;;;;54.75;20.13;;;5.60;99.90;;;;;;5011564;28;20396;-72
2022/03/16 07:15:44;;;;;;;57.90;20.83;;;5.60;99.90;;;;;;5011526;28;20108;-72
2022/03/16 07:18:10;;;;;;;52.05;20.60;;;5.60;99.90;;;;;;5011674;28;20038;-73
2022/03/16 07:20:36;;;;;;;54.92;20.73;;;5.60;99.90;;;;;;5011087;28;20030;-73
2022/03/16 07:23:05;;;;;;;54.22;20.67;;;5.60;99.90;;;;;;5010501;28;20029;-73
2022/03/16 07:25:31;;;;;;;50.13;20.13;;;5.60;99.90;;;;;;5012239;28;20029;-73
2022/03/16 07:27:57;;;;;;;51.88;19.65;;;5.60;99.90;;;;;;5014299;28;20796;-72
2022/03/16 07:30:22;;;;;;;51.55;19.83;;;5.60;99.90;;;;;;5023670;28;20121;-72
2022/03/16 07:32:48;;;;;;;50.72;19.77;;;5.70;99.90;;;;;;5010215;28;20026;-72
2022/03/16 07:35:14;;;;;;;53.90;21.17;;;5.70;99.90;;;;;;5012171;28;20038;-72
2022/03/16 07:37:43;;;;;;;52.03;20.38;;;5.70;99.90;;;;;;5010704;28;20034;-72
2022/03/16 07:40:10;;;;;;;47.22;19.92;;;5.80;99.90;;;;;;5011333;28;20033;-72
2022/03/16 07:42:36;;;;;;;56.47;20.95;;;5.80;99.90;;;;;;5011111;28;20115;-71
2022/03/16 07:45:03;;;;;;;52.17;20.42;;;5.90;99.90;;;;;;5010969;28;20041;-74
2022/03/16 07:47:29;;;;;;;50.75;20.65;;;6.00;99.90;;;;;;5011699;28;20068;-74
2022/03/16 07:49:56;;;;;;;53.53;20.02;;;6.00;99.90;;;;;;5010107;28;20064;-73
2022/03/16 07:52:23;;;;;;;47.47;20.25;;;6.10;99.90;;;;;;5011406;28;20490;-73
2022/03/16 07:54:49;;;;;;;50.40;20.60;;;6.10;99.90;;;;;;5008049;28;20029;-73
2022/03/16 07:57:16;;;;;;;50.35;19.63;;;6.20;99.90;;;;;;5010745;28;20095;-72
2022/03/16 07:59:42;;;;;;;48.85;18.52;;;6.30;99.90;;;;;;5009436;28;20037;-73
2022/03/16 08:02:08;;;;;;;48.50;19.63;;;6.30;99.90;;;;;;5010155;28;20032;-72
2022/03/16 08:04:34;;;;;;;52.65;19.30;;;6.40;99.90;;;;;;5010573;28;20033;-73
2022/03/16 08:07:00;;;;;;;50.60;20.40;;;6.40;99.90;;;;;;5010891;28;20050;-70
2022/03/16 08:09:25;;;;;;;47.03;19.30;;;6.40;99.90;;;;;;5010711;28;20049;-72
2022/03/16 08:11:51;;;;;;;48.13;19.02;;;6.50;99.90;;;;;;5010158;28;20396;-71
2022/03/16 08:14:17;;;;;;;50.20;18.63;;;6.60;99.90;;;;;;5009451;28;20040;-72
2022/03/16 08:16:42;;;;;;;45.45;18.40;;;6.60;99.90;;;;;;5009001;28;20041;-74
2022/03/16 08:19:08;;;;;;;48.22;19.25;;;6.60;99.90;;;;;;5005947;28;20037;-73
2022/03/16 08:21:34;;;;;;;52.33;20.42;;;6.70;99.90;;;;;;5009725;28;20450;-72
2022/03/16 08:23:59;;;;;;;46.83;18.85;;;6.70;99.90;;;;;;5009487;28;20065;-72
2022/03/16 08:26:25;;;;;;;51.05;20.30;;;6.70;99.90;;;;;;5010872;28;20029;-73
2022/03/16 08:28:51;;;;;;;51.35;20.20;;;6.80;99.90;;;;;;5014756;28;20465;-71
2022/03/16 08:31:17;;;;;;;45.70;18.13;;;6.80;99.90;;;;;;5010762;28;20037;-71
2022/03/16 08:33:44;;;;;;;46.67;18.35;;;6.90;99.90;;;;;;5009308;28;20040;-72
2022/03/16 08:36:11;;;;;;;46.95;19.90;;;6.80;99.90;;;;;;5010671;28;20046;-72
2022/03/16 08:38:38;;;;;;;46.30;17.92;;;6.90;99.90;;;;;;5010819;28;20026;-72
2022/03/16 08:41:06;;;;;;;45.42;18.13;;;6.90;99.90;;;;;;5009610;28;20523;-71
2022/03/16 08:43:32;;;;;;;48.10;18.45;;;6.90;99.90;;;;;;5010229;28;20030;-72
2022/03/16 08:45:59;;;;;;;46.80;18.70;;;6.90;99.90;;;;;;5009635;28;20128;-72
2022/03/16 08:48:25;;;;;;;43.97;18.02;;;6.90;99.90;;;;;;5001401;28;20036;-72
2022/03/16 08:50:51;;;;;;;46.67;18.50;;;7.00;99.90;;;;;;5008720;28;20113;-72
2022/03/16 08:53:17;;;;;;;42.42;17.38;;;7.00;99.90;;;;;;5009663;28;20757;-71
2022/03/16 08:55:43;;;;;;;46.75;18.50;;;7.00;99.90;;;;;;5009090;28;20037;-74
2022/03/16 08:58:08;;;;;;;45.22;17.88;;;7.00;99.90;;;;;;5014610;28;20064;-72
2022/03/16 09:00:34;;;;;;;44.17;17.45;;;7.10;99.90;;;;;;5013514;28;20030;-72
2022/03/16 09:03:00;;;;;;;41.97;17.92;;;7.20;99.90;;;;;;5007442;28;20667;-72
2022/03/16 09:05:26;;;;;;;40.97;16.83;;;7.20;99.90;;;;;;5009394;28;20044;-71
2022/03/16 09:07:52;;;;;;;42.40;17.98;;;7.20;99.90;;;;;;5008921;28;20041;-71
2022/03/16 09:10:19;;;;;;;41.75;17.17;;;7.30;99.90;;;;;;5009747;28;20107;-72
2022/03/16 09:12:45;;;;;;;41.95;16.85;;;7.40;99.90;;;;;;5008971;28;20018;-71
2022/03/16 09:15:10;;;;;;;38.88;16.40;;;7.40;99.90;;;;;;5009964;28;20042;-73
2022/03/16 09:17:36;;;;;;;39.60;16.55;;;7.50;99.90;;;;;;5009198;28;20036;-71
2022/03/16 09:20:03;;;;;;;37.58;16.67;;;7.60;99.90;;;;;;5009112;28;20511;-72
2022/03/16 09:22:28;;;;;;;39.95;16.08;;;7.50;99.90;;;;;;5008622;28;20088;-72
2022/03/16 09:24:56;;;;;;;35.30;14.73;;;7.60;99.90;;;;;;5008179;28;20030;-72
2022/03/16 09:27:22;;;;;;;37.60;16.23;;;7.60;99.90;;;;;;5009471;28;20045;-71
2022/03/16 09:29:48;;;;;;;38.88;15.88;;;7.70;99.90;;;;;;5011019;28;20089;-72
2022/03/16 09:32:14;;;;;;;38.65;16.02;;;7.70;99.90;;;;;;5009635;28;20022;-70
2022/03/16 09:34:41;;;;;;;34.95;15.10;;;7.70;99.90;;;;;;5009358;28;20065;-73
2022/03/16 09:37:07;;;;;;;34.95;14.95;;;7.80;99.90;;;;;;5009411;28;20049;-70
2022/03/16 09:39:35;;;;;;;35.78;14.93;;;7.80;99.90;;;;;;5009398;28;20040;-71
2022/03/16 09:42:03;;;;;;;34.17;14.38;;;7.90;99.90;;;;;;5007925;28;20066;-72
2022/03/16 09:44:32;;;;;;;34.35;14.88;;;8.10;99.90;;;;;;5009232;28;20038;-71
2022/03/16 09:46:59;;;;;;;36.13;15.25;;;8.30;99.90;;;;;;5008284;28;20044;-72
2022/03/16 09:49:26;;;;;;;41.90;15.10;;;8.50;99.90;;;;;;5009604;28;20377;-72
2022/03/16 09:51:53;;;;;;;32.28;14.43;;;8.70;99.90;;;;;;5008338;28;20117;-70
2022/03/16 09:54:19;;;;;;;34.15;14.90;;;8.80;99.90;;;;;;5009455;28;20069;-72
2022/03/16 09:56:47;;;;;;;32.70;14.35;;;8.80;99.90;;;;;;5007752;28;20045;-72
2022/03/16 09:59:14;;;;;;;32.08;14.40;;;8.90;99.90;;;;;;5008626;28;20061;-71
2022/03/16 10:01:42;;;;;;;32.17;14.60;;;9.00;99.90;;;;;;5009317;28;20121;-70
2022/03/16 10:04:07;;;;;;;30.40;14.25;;;9.10;99.90;;;;;;5008185;28;20065;-71
2022/03/16 10:06:41;;;;;;;31.95;13.98;;;9.20;99.90;;;;;;5008987;28;20447;-72
2022/03/16 10:15:12;;;;;;;31.73;12.80;;;9.50;99.90;;;;;;5001806;28;19925;-70
2022/03/16 10:17:48;;;;;;;30.85;13.65;;;9.70;99.90;;;;;;5012110;28;20053;-68
2022/03/16 10:20:30;;;;;;;31.90;14.07;;;10.00;99.90;;;;;;5013013;28;20021;-69
2022/03/16 10:23:06;;;;;;;34.45;15.05;;;10.10;99.90;;;;;;5012086;28;20030;-68
2022/03/16 10:25:37;;;;;;;37.63;15.02;;;10.20;99.90;;;;;;5012868;28;20392;-69
2022/03/16 10:28:26;;;;;;;30.35;13.82;;;10.40;99.90;;;;;;5011535;28;20014;-69
2022/03/16 10:31:00;;;;;;;29.80;14.18;;;10.60;99.90;;;;;;4993445;28;20050;-67
2022/03/16 10:33:43;;;;;;;30.17;13.25;;;10.60;99.90;;;;;;5012502;28;20045;-68
2022/03/16 10:36:14;;;;;;;28.13;13.25;;;10.90;99.90;;;;;;5012466;28;20044;-70
2022/03/16 10:38:50;;;;;;;28.67;13.05;;;10.90;99.90;;;;;;5012791;28;20034;-71
2022/03/16 10:47:17;;;;;;;26.13;12.05;;;11.30;99.90;;;;;;5015107;28;20769;-70
2022/03/16 10:49:45;;;;;;;25.13;11.90;;;11.40;99.90;;;;;;5012521;28;20030;-70
2022/03/16 10:52:15;;;;;;;29.48;13.43;;;11.40;99.90;;;;;;5010912;28;20033;-69
2022/03/16 10:54:42;;;;;;;25.30;12.05;;;11.40;99.90;;;;;;5012854;28;20109;-69
2022/03/16 10:57:13;;;;;;;25.98;11.65;;;11.30;99.90;;;;;;5010727;28;20046;-68
2022/03/16 10:59:42;;;;;;;26.42;13.23;;;11.20;99.90;;;;;;5014956;28;20034;-68
2022/03/16 11:02:13;;;;;;;27.42;13.02;;;11.30;99.90;;;;;;5017144;28;20017;-70
2022/03/16 11:04:45;;;;;;;29.05;12.73;;;11.60;99.90;;;;;;5012670;28;20424;-70
2022/03/16 11:07:11;;;;;;;29.88;13.02;;;11.60;99.90;;;;;;5007893;28;20026;-68
2022/03/16 11:09:38;;;;;;;23.45;11.20;;;11.60;99.90;;;;;;5012417;28;20040;-69
2022/03/16 11:14:51;;;;;;;25.95;11.82;;;11.90;99.90;;;;;;5006918;28;20033;-70
2022/03/16 11:17:17;;;;;;;25.08;11.98;;;12.10;99.90;;;;;;5010894;28;20053;-71
2022/03/16 11:19:51;;;;;;;25.55;11.63;;;11.70;99.90;;;;;;5011784;28;20036;-70
2022/03/16 11:22:19;;;;;;;25.10;12.43;;;12.00;99.90;;;;;;5012337;28;20045;-70
2022/03/16 11:24:54;;;;;;;25.05;12.30;;;12.00;99.90;;;;;;5011021;28;20423;-71
2022/03/16 11:27:46;;;;;;;24.73;12.20;;;12.30;99.90;;;;;;5011464;28;20033;-70
2022/03/16 11:30:27;;;;;;;25.23;12.27;;;12.50;99.90;;;;;;5009239;28;20097;-71
2022/03/16 11:33:07;;;;;;;25.08;12.32;;;12.60;99.90;;;;;;4997324;28;20623;-70
2022/03/16 11:35:50;;;;;;;27.20;13.80;;;12.60;99.90;;;;;;5012794;28;20042;-71
2022/03/16 11:38:17;;;;;;;24.58;12.25;;;12.90;99.90;;;;;;5022351;28;20067;-69
2022/03/16 11:40:45;;;;;;;25.38;12.98;;;13.10;99.90;;;;;;5010078;28;20038;-70
2022/03/16 11:43:21;;;;;;;25.48;13.15;;;13.00;99.90;;;;;;5010913;28;20057;-71
2022/03/16 11:45:57;;;;;;;24.30;12.90;;;12.90;99.90;;;;;;5011219;28;20038;-75
2022/03/16 11:48:31;;;;;;;26.40;13.82;;;12.80;99.90;;;;;;5011035;28;20036;-69
2022/03/16 11:51:08;;;;;;;29.25;14.27;;;13.00;99.90;;;;;;5010461;28;20088;-70
2022/03/16 11:53:58;;;;;;;27.33;13.68;;;12.70;99.90;;;;;;5011323;28;20034;-72
2022/03/16 11:56:26;;;;;;;26.08;13.50;;;12.70;99.90;;;;;;5011370;28;20045;-71
2022/03/16 11:58:53;;;;;;;26.83;14.30;;;12.90;99.90;;;;;;5009756;28;20034;-70
2022/03/16 12:01:39;;;;;;;27.20;13.93;;;12.90;99.90;;;;;;5009522;28;20030;-71
2022/03/16 12:04:12;;;;;;;27.70;14.32;;;13.20;99.90;;;;;;5007026;28;21549;-72
2022/03/16 12:07:04;;;;;;;27.40;14.45;;;13.30;99.90;;;;;;5008949;28;20087;-72
2022/03/16 12:09:45;;;;;;;26.13;13.05;;;13.30;99.90;;;;;;5008003;28;20026;-72
2022/03/16 12:12:54;;;;;;;25.08;13.55;;;13.30;99.90;;;;;;5010152;28;20046;-71
2022/03/16 12:15:41;;;;;;;27.67;13.00;;;13.40;99.90;;;;;;5010499;28;20064;-69
2022/03/16 12:18:07;;;;;;;24.05;12.93;;;13.30;99.90;;;;;;5010226;28;20091;-70
2022/03/16 12:20:49;;;;;;;26.15;13.82;;;13.10;99.90;;;;;;5011008;28;20128;-72
2022/03/16 12:23:38;;;;;;;24.35;12.73;;;13.10;99.90;;;;;;5009251;28;20025;-69
2022/03/16 12:26:04;;;;;;;29.02;13.68;;;13.30;99.90;;;;;;5009993;28;20514;-70
2022/03/16 12:31:21;;;;;;;28.73;14.07;;;13.00;99.90;;;;;;5011718;28;20079;-72
2022/03/16 12:33:52;;;;;;;27.00;13.07;;;12.90;99.90;;;;;;5010615;28;20070;-72
2022/03/16 12:36:27;;;;;;;22.63;12.32;;;13.00;99.90;;;;;;5009468;28;20042;-71
2022/03/16 12:38:57;;;;;;;25.23;14.38;;;13.30;99.90;;;;;;5009987;28;20084;-74
2022/03/16 12:44:12;;;;;;;27.95;14.20;;;13.50;99.90;;;;;;5009406;28;20052;-69
2022/03/16 12:47:06;;;;;;;25.60;13.02;;;13.60;99.90;;;;;;5010153;28;20030;-69
2022/03/16 12:49:39;;;;;;;24.00;12.70;;;13.60;99.90;;;;;;5010187;28;20088;-71
2022/03/16 12:52:05;;;;;;;25.70;13.15;;;13.70;99.90;;;;;;5009305;28;20034;-70
2022/03/16 12:54:36;;;;;;;23.92;12.75;;;13.50;99.90;;;;;;5010232;28;20041;-70
2022/03/16 12:57:08;;;;;;;22.85;11.93;;;13.50;99.90;;;;;;5009639;28;20042;-70
2022/03/16 12:59:41;;;;;;;24.85;12.98;;;13.50;99.90;;;;;;5010715;28;20491;-71